sensor_id;sensor_type;location;lat;lon;timestamp;pressure;altitude;pressure_sealevel;temperature;humidity
77526;BME280;66627;29.424;-98.496;2023-07-08T00:01:40;98531.15;;;32.02;36.30
77526;BME280;66627;29.424;-98.496;2023-07-08T00:04:05;98525.97;;;32.34;35.79
77526;BME280;66627;29.424;-98.496;2023-07-08T00:06:31;98523.22;;;32.43;35.38
77526;BME280;66627;29.424;-98.496;2023-07-08T00:08:56;98520.21;;;32.50;36.07
77526;BME280;66627;29.424;-98.496;2023-07-08T00:11:21;98520.92;;;33.02;36.03
77526;BME280;66627;29.424;-98.496;2023-07-08T00:13:46;98512.56;;;31.91;37.53
77526;BME280;66627;29.424;-98.496;2023-07-08T00:16:14;98513.76;;;31.65;38.55
77526;BME280;66627;29.424;-98.496;2023-07-08T00:18:37;98513.65;;;32.19;38.21
77526;BME280;66627;29.424;-98.496;2023-07-08T00:21:02;98508.34;;;31.65;38.61
77526;BME280;66627;29.424;-98.496;2023-07-08T00:23:28;98512.35;;;32.46;37.83
77526;BME280;66627;29.424;-98.496;2023-07-08T00:25:53;98508.07;;;32.62;37.23
77526;BME280;66627;29.424;-98.496;2023-07-08T00:28:20;98510.04;;;31.80;38.45
77526;BME280;66627;29.424;-98.496;2023-07-08T00:30:43;98509.77;;;31.97;39.03
77526;BME280;66627;29.424;-98.496;2023-07-08T00:33:08;98508.27;;;31.77;38.80
77526;BME280;66627;29.424;-98.496;2023-07-08T00:35:36;98515.35;;;31.32;38.12
77526;BME280;66627;29.424;-98.496;2023-07-08T00:37:59;98521.49;;;31.81;37.71
77526;BME280;66627;29.424;-98.496;2023-07-08T00:40:25;98527.19;;;31.51;37.72
77526;BME280;66627;29.424;-98.496;2023-07-08T00:42:51;98529.85;;;32.03;37.39
77526;BME280;66627;29.424;-98.496;2023-07-08T00:45:31;98535.26;;;31.03;37.45
77526;BME280;66627;29.424;-98.496;2023-07-08T00:47:41;98538.50;;;31.50;37.78
77526;BME280;66627;29.424;-98.496;2023-07-08T00:50:09;98536.20;;;31.03;38.24
77526;BME280;66627;29.424;-98.496;2023-07-08T00:52:36;98534.11;;;31.76;37.67
77526;BME280;66627;29.424;-98.496;2023-07-08T00:54:59;98530.99;;;31.57;37.93
77526;BME280;66627;29.424;-98.496;2023-07-08T00:57:24;98532.94;;;31.08;37.82
77526;BME280;66627;29.424;-98.496;2023-07-08T00:59:52;98529.59;;;31.35;38.18
77526;BME280;66627;29.424;-98.496;2023-07-08T01:02:14;98528.87;;;30.57;39.07
77526;BME280;66627;29.424;-98.496;2023-07-08T01:04:42;98525.71;;;31.26;38.51
77526;BME280;66627;29.424;-98.496;2023-07-08T01:07:03;98524.13;;;31.33;38.03
77526;BME280;66627;29.424;-98.496;2023-07-08T01:09:30;98523.89;;;31.19;38.02
77526;BME280;66627;29.424;-98.496;2023-07-08T01:11:56;98518.37;;;31.12;38.26
77526;BME280;66627;29.424;-98.496;2023-07-08T01:14:20;98519.78;;;31.29;37.71
77526;BME280;66627;29.424;-98.496;2023-07-08T01:16:43;98513.84;;;31.19;38.45
77526;BME280;66627;29.424;-98.496;2023-07-08T01:19:14;98509.93;;;31.13;38.28
77526;BME280;66627;29.424;-98.496;2023-07-08T01:21:36;98510.84;;;31.07;37.84
77526;BME280;66627;29.424;-98.496;2023-07-08T01:24:00;98514.49;;;31.01;37.80
77526;BME280;66627;29.424;-98.496;2023-07-08T01:26:26;98512.79;;;31.58;37.50
77526;BME280;66627;29.424;-98.496;2023-07-08T01:28:49;98506.10;;;31.10;38.54
77526;BME280;66627;29.424;-98.496;2023-07-08T01:31:15;98503.64;;;31.36;37.21
77526;BME280;66627;29.424;-98.496;2023-07-08T01:33:40;98499.67;;;31.03;37.58
77526;BME280;66627;29.424;-98.496;2023-07-08T01:36:07;98501.84;;;31.05;37.71
77526;BME280;66627;29.424;-98.496;2023-07-08T01:38:31;98503.45;;;31.45;37.20
77526;BME280;66627;29.424;-98.496;2023-07-08T01:40:57;98504.50;;;31.51;37.37
77526;BME280;66627;29.424;-98.496;2023-07-08T01:43:21;98505.33;;;31.24;37.45
77526;BME280;66627;29.424;-98.496;2023-07-08T01:45:47;98504.61;;;31.44;37.11
77526;BME280;66627;29.424;-98.496;2023-07-08T01:48:13;98502.95;;;31.14;37.86
77526;BME280;66627;29.424;-98.496;2023-07-08T01:50:40;98506.10;;;30.90;37.73
77526;BME280;66627;29.424;-98.496;2023-07-08T01:53:06;98515.48;;;31.49;37.01
77526;BME280;66627;29.424;-98.496;2023-07-08T01:55:28;98518.37;;;31.63;37.42
77526;BME280;66627;29.424;-98.496;2023-07-08T01:57:54;98530.07;;;30.93;38.19
77526;BME280;66627;29.424;-98.496;2023-07-08T02:00:19;98532.11;;;30.91;38.29
77526;BME280;66627;29.424;-98.496;2023-07-08T02:02:43;98536.73;;;30.57;38.72
77526;BME280;66627;29.424;-98.496;2023-07-08T02:05:09;98537.53;;;30.56;38.35
77526;BME280;66627;29.424;-98.496;2023-07-08T02:07:34;98538.76;;;30.35;39.19
77526;BME280;66627;29.424;-98.496;2023-07-08T02:09:59;98546.58;;;30.31;39.07
77526;BME280;66627;29.424;-98.496;2023-07-08T02:12:24;98549.03;;;30.28;38.94
77526;BME280;66627;29.424;-98.496;2023-07-08T02:14:49;98548.59;;;30.59;38.30
77526;BME280;66627;29.424;-98.496;2023-07-08T02:17:14;98546.64;;;29.87;38.72
77526;BME280;66627;29.424;-98.496;2023-07-08T02:19:39;98544.67;;;30.15;39.01
77526;BME280;66627;29.424;-98.496;2023-07-08T02:22:05;98546.61;;;29.97;39.19
77526;BME280;66627;29.424;-98.496;2023-07-08T02:24:30;98545.20;;;29.62;40.11
77526;BME280;66627;29.424;-98.496;2023-07-08T02:26:55;98554.81;;;29.96;39.31
77526;BME280;66627;29.424;-98.496;2023-07-08T02:29:20;98559.45;;;29.46;40.22
77526;BME280;66627;29.424;-98.496;2023-07-08T02:31:45;98565.67;;;29.58;40.45
77526;BME280;66627;29.424;-98.496;2023-07-08T02:34:11;98564.58;;;29.37;41.19
77526;BME280;66627;29.424;-98.496;2023-07-08T02:36:37;98568.62;;;29.68;41.69
77526;BME280;66627;29.424;-98.496;2023-07-08T02:39:02;98564.42;;;29.74;42.15
77526;BME280;66627;29.424;-98.496;2023-07-08T02:41:27;98569.25;;;28.77;42.92
77526;BME280;66627;29.424;-98.496;2023-07-08T02:43:53;98572.97;;;29.19;42.86
77526;BME280;66627;29.424;-98.496;2023-07-08T02:46:17;98574.85;;;29.14;42.95
77526;BME280;66627;29.424;-98.496;2023-07-08T02:48:43;98576.87;;;28.94;43.23
77526;BME280;66627;29.424;-98.496;2023-07-08T02:51:08;98575.32;;;28.76;44.15
77526;BME280;66627;29.424;-98.496;2023-07-08T02:53:34;98578.93;;;28.55;44.43
77526;BME280;66627;29.424;-98.496;2023-07-08T02:55:58;98587.41;;;28.65;45.06
77526;BME280;66627;29.424;-98.496;2023-07-08T02:58:24;98592.94;;;28.82;45.15
77526;BME280;66627;29.424;-98.496;2023-07-08T03:00:52;98605.56;;;28.60;44.94
77526;BME280;66627;29.424;-98.496;2023-07-08T03:03:14;98612.95;;;28.76;45.29
77526;BME280;66627;29.424;-98.496;2023-07-08T03:05:39;98612.12;;;28.79;45.80
77526;BME280;66627;29.424;-98.496;2023-07-08T03:08:05;98610.88;;;28.77;45.74
77526;BME280;66627;29.424;-98.496;2023-07-08T03:10:30;98610.75;;;28.72;46.22
77526;BME280;66627;29.424;-98.496;2023-07-08T03:12:55;98615.99;;;28.88;46.24
77526;BME280;66627;29.424;-98.496;2023-07-08T03:15:21;98618.74;;;28.99;46.15
77526;BME280;66627;29.424;-98.496;2023-07-08T03:17:46;98621.61;;;28.81;46.39
77526;BME280;66627;29.424;-98.496;2023-07-08T03:20:12;98625.04;;;29.01;46.45
77526;BME280;66627;29.424;-98.496;2023-07-08T03:22:37;98632.57;;;28.67;46.70
77526;BME280;66627;29.424;-98.496;2023-07-08T03:25:03;98637.62;;;28.90;45.60
77526;BME280;66627;29.424;-98.496;2023-07-08T03:27:27;98642.19;;;29.28;45.63
77526;BME280;66627;29.424;-98.496;2023-07-08T03:29:53;98646.42;;;27.97;47.03
77526;BME280;66627;29.424;-98.496;2023-07-08T03:32:18;98652.02;;;28.82;46.00
77526;BME280;66627;29.424;-98.496;2023-07-08T03:34:43;98663.90;;;28.77;45.58
77526;BME280;66627;29.424;-98.496;2023-07-08T03:37:10;98671.14;;;28.60;46.22
77526;BME280;66627;29.424;-98.496;2023-07-08T03:39:34;98673.18;;;28.57;46.06
77526;BME280;66627;29.424;-98.496;2023-07-08T03:42:00;98677.98;;;28.96;45.29
77526;BME280;66627;29.424;-98.496;2023-07-08T03:44:25;98683.65;;;29.21;44.99
77526;BME280;66627;29.424;-98.496;2023-07-08T03:46:50;98688.54;;;28.78;45.55
77526;BME280;66627;29.424;-98.496;2023-07-08T03:49:14;98696.27;;;28.53;45.85
77526;BME280;66627;29.424;-98.496;2023-07-08T03:51:41;98706.33;;;28.72;45.71
77526;BME280;66627;29.424;-98.496;2023-07-08T03:54:06;98707.81;;;28.95;45.78
77526;BME280;66627;29.424;-98.496;2023-07-08T03:56:30;98715.01;;;29.27;45.13
77526;BME280;66627;29.424;-98.496;2023-07-08T03:58:55;98719.65;;;28.75;45.81
77526;BME280;66627;29.424;-98.496;2023-07-08T04:01:22;98722.21;;;28.71;46.13
77526;BME280;66627;29.424;-98.496;2023-07-08T04:03:46;98723.86;;;28.33;46.99
77526;BME280;66627;29.424;-98.496;2023-07-08T04:06:15;98726.77;;;28.99;45.78
77526;BME280;66627;29.424;-98.496;2023-07-08T04:08:36;98728.05;;;28.36;46.40
77526;BME280;66627;29.424;-98.496;2023-07-08T04:11:01;98727.08;;;28.08;47.02
77526;BME280;66627;29.424;-98.496;2023-07-08T04:13:26;98727.53;;;28.64;46.60
77526;BME280;66627;29.424;-98.496;2023-07-08T04:15:54;98726.12;;;28.49;46.64
77526;BME280;66627;29.424;-98.496;2023-07-08T04:18:17;98728.09;;;28.46;46.58
77526;BME280;66627;29.424;-98.496;2023-07-08T04:20:42;98730.51;;;28.03;46.88
77526;BME280;66627;29.424;-98.496;2023-07-08T04:23:07;98735.03;;;28.11;46.62
77526;BME280;66627;29.424;-98.496;2023-07-08T04:25:32;98738.20;;;28.57;46.31
77526;BME280;66627;29.424;-98.496;2023-07-08T04:27:58;98736.94;;;28.74;46.43
77526;BME280;66627;29.424;-98.496;2023-07-08T04:30:24;98740.54;;;29.02;45.66
77526;BME280;66627;29.424;-98.496;2023-07-08T04:32:50;98741.93;;;27.89;47.68
77526;BME280;66627;29.424;-98.496;2023-07-08T04:35:14;98739.63;;;28.02;47.38
77526;BME280;66627;29.424;-98.496;2023-07-08T04:37:39;98743.23;;;27.57;47.85
77526;BME280;66627;29.424;-98.496;2023-07-08T04:40:05;98745.56;;;27.91;48.22
77526;BME280;66627;29.424;-98.496;2023-07-08T04:42:29;98742.84;;;28.17;47.73
77526;BME280;66627;29.424;-98.496;2023-07-08T04:44:54;98734.70;;;28.09;47.16
77526;BME280;66627;29.424;-98.496;2023-07-08T04:47:20;98734.29;;;28.34;47.25
77526;BME280;66627;29.424;-98.496;2023-07-08T04:49:44;98735.04;;;28.31;47.10
77526;BME280;66627;29.424;-98.496;2023-07-08T04:52:10;98738.62;;;28.19;47.53
77526;BME280;66627;29.424;-98.496;2023-07-08T04:54:35;98741.25;;;28.12;47.61
77526;BME280;66627;29.424;-98.496;2023-07-08T04:57:00;98740.73;;;28.85;46.74
77526;BME280;66627;29.424;-98.496;2023-07-08T04:59:26;98738.51;;;28.06;47.71
77526;BME280;66627;29.424;-98.496;2023-07-08T05:01:52;98741.53;;;27.61;48.11
77526;BME280;66627;29.424;-98.496;2023-07-08T05:04:19;98741.23;;;27.78;48.59
77526;BME280;66627;29.424;-98.496;2023-07-08T05:06:42;98747.47;;;27.31;48.95
77526;BME280;66627;29.424;-98.496;2023-07-08T05:09:07;98750.04;;;27.44;48.77
77526;BME280;66627;29.424;-98.496;2023-07-08T05:11:33;98754.77;;;28.73;46.94
77526;BME280;66627;29.424;-98.496;2023-07-08T05:13:58;98761.44;;;29.13;46.23
77526;BME280;66627;29.424;-98.496;2023-07-08T05:16:23;98761.09;;;28.00;47.94
77526;BME280;66627;29.424;-98.496;2023-07-08T05:18:48;98753.92;;;28.34;46.93
77526;BME280;66627;29.424;-98.496;2023-07-08T05:21:15;98751.86;;;29.07;46.21
77526;BME280;66627;29.424;-98.496;2023-07-08T05:23:39;98750.10;;;29.08;46.65
77526;BME280;66627;29.424;-98.496;2023-07-08T05:26:05;98750.10;;;28.49;47.24
77526;BME280;66627;29.424;-98.496;2023-07-08T05:28:29;98754.73;;;28.52;47.25
77526;BME280;66627;29.424;-98.496;2023-07-08T05:30:55;98755.00;;;28.58;47.57
77526;BME280;66627;29.424;-98.496;2023-07-08T05:33:20;98753.10;;;28.92;46.61
77526;BME280;66627;29.424;-98.496;2023-07-08T05:35:46;98756.83;;;28.31;47.74
77526;BME280;66627;29.424;-98.496;2023-07-08T05:38:10;98757.73;;;28.64;47.30
77526;BME280;66627;29.424;-98.496;2023-07-08T05:40:35;98761.46;;;28.59;47.60
77526;BME280;66627;29.424;-98.496;2023-07-08T05:43:00;98759.56;;;28.82;47.17
77526;BME280;66627;29.424;-98.496;2023-07-08T05:45:25;98759.87;;;28.46;47.74
77526;BME280;66627;29.424;-98.496;2023-07-08T05:47:50;98761.90;;;28.26;47.99
77526;BME280;66627;29.424;-98.496;2023-07-08T05:50:16;98764.34;;;27.65;48.69
77526;BME280;66627;29.424;-98.496;2023-07-08T05:52:41;98771.25;;;28.03;48.29
77526;BME280;66627;29.424;-98.496;2023-07-08T05:55:07;98773.18;;;27.69;48.97
77526;BME280;66627;29.424;-98.496;2023-07-08T05:57:32;98772.09;;;28.28;48.65
77526;BME280;66627;29.424;-98.496;2023-07-08T05:59:58;98773.05;;;28.06;48.73
77526;BME280;66627;29.424;-98.496;2023-07-08T06:02:23;98769.86;;;28.36;48.47
77526;BME280;66627;29.424;-98.496;2023-07-08T06:04:48;98769.92;;;27.96;49.01
77526;BME280;66627;29.424;-98.496;2023-07-08T06:07:13;98770.56;;;28.34;48.57
77526;BME280;66627;29.424;-98.496;2023-07-08T06:09:38;98771.78;;;27.82;49.71
77526;BME280;66627;29.424;-98.496;2023-07-08T06:12:04;98777.17;;;27.74;49.90
77526;BME280;66627;29.424;-98.496;2023-07-08T06:14:29;98777.64;;;28.37;48.97
77526;BME280;66627;29.424;-98.496;2023-07-08T06:16:54;98779.34;;;27.12;50.41
77526;BME280;66627;29.424;-98.496;2023-07-08T06:19:19;98776.34;;;27.93;49.47
77526;BME280;66627;29.424;-98.496;2023-07-08T06:21:44;98777.76;;;27.66;50.14
77526;BME280;66627;29.424;-98.496;2023-07-08T06:24:09;98781.04;;;27.56;50.86
77526;BME280;66627;29.424;-98.496;2023-07-08T06:26:35;98774.00;;;27.08;51.33
77526;BME280;66627;29.424;-98.496;2023-07-08T06:29:00;98767.50;;;27.53;50.54
77526;BME280;66627;29.424;-98.496;2023-07-08T06:31:27;98768.72;;;27.69;50.33
77526;BME280;66627;29.424;-98.496;2023-07-08T06:33:51;98774.21;;;27.74;50.22
77526;BME280;66627;29.424;-98.496;2023-07-08T06:36:16;98770.65;;;27.61;50.48
77526;BME280;66627;29.424;-98.496;2023-07-08T06:38:42;98767.63;;;28.06;50.54
77526;BME280;66627;29.424;-98.496;2023-07-08T06:41:07;98767.84;;;27.10;51.29
77526;BME280;66627;29.424;-98.496;2023-07-08T06:43:32;98774.22;;;27.23;52.24
77526;BME280;66627;29.424;-98.496;2023-07-08T06:45:58;98776.74;;;27.37;51.10
77526;BME280;66627;29.424;-98.496;2023-07-08T06:48:23;98777.04;;;27.90;50.59
77526;BME280;66627;29.424;-98.496;2023-07-08T06:50:48;98773.77;;;27.85;50.38
77526;BME280;66627;29.424;-98.496;2023-07-08T06:53:14;98773.63;;;28.32;50.34
77526;BME280;66627;29.424;-98.496;2023-07-08T06:55:40;98773.90;;;27.20;51.55
77526;BME280;66627;29.424;-98.496;2023-07-08T06:58:05;98771.73;;;27.58;50.87
77526;BME280;66627;29.424;-98.496;2023-07-08T07:00:30;98767.47;;;27.88;50.25
77526;BME280;66627;29.424;-98.496;2023-07-08T07:02:55;98765.10;;;27.82;50.40
77526;BME280;66627;29.424;-98.496;2023-07-08T07:05:20;98765.42;;;27.75;51.00
77526;BME280;66627;29.424;-98.496;2023-07-08T07:07:46;98773.71;;;27.88;51.05
77526;BME280;66627;29.424;-98.496;2023-07-08T07:10:11;98779.38;;;27.31;51.72
77526;BME280;66627;29.424;-98.496;2023-07-08T07:12:36;98782.33;;;27.26;52.16
77526;BME280;66627;29.424;-98.496;2023-07-08T07:15:02;98781.48;;;27.25;51.97
77526;BME280;66627;29.424;-98.496;2023-07-08T07:17:28;98777.16;;;26.95;52.53
77526;BME280;66627;29.424;-98.496;2023-07-08T07:19:54;98772.55;;;27.35;51.79
77526;BME280;66627;29.424;-98.496;2023-07-08T07:22:23;98762.70;;;27.92;51.26
77526;BME280;66627;29.424;-98.496;2023-07-08T07:24:44;98768.48;;;27.62;52.52
77526;BME280;66627;29.424;-98.496;2023-07-08T07:27:09;98769.89;;;27.35;53.05
77526;BME280;66627;29.424;-98.496;2023-07-08T07:29:40;98769.30;;;27.54;52.40
77526;BME280;66627;29.424;-98.496;2023-07-08T07:31:59;98772.32;;;26.89;54.26
77526;BME280;66627;29.424;-98.496;2023-07-08T07:34:24;98774.27;;;27.26;53.52
77526;BME280;66627;29.424;-98.496;2023-07-08T07:36:49;98773.55;;;27.74;52.82
77526;BME280;66627;29.424;-98.496;2023-07-08T07:39:14;98775.74;;;27.39;54.08
77526;BME280;66627;29.424;-98.496;2023-07-08T07:41:40;98775.10;;;27.60;54.44
77526;BME280;66627;29.424;-98.496;2023-07-08T07:44:05;98775.17;;;27.33;54.64
77526;BME280;66627;29.424;-98.496;2023-07-08T07:46:30;98769.66;;;27.09;54.89
77526;BME280;66627;29.424;-98.496;2023-07-08T07:48:55;98770.27;;;27.51;54.99
77526;BME280;66627;29.424;-98.496;2023-07-08T07:51:20;98769.96;;;27.24;55.56
77526;BME280;66627;29.424;-98.496;2023-07-08T07:53:46;98765.19;;;28.19;53.57
77526;BME280;66627;29.424;-98.496;2023-07-08T07:56:11;98766.92;;;26.46;56.04
77526;BME280;66627;29.424;-98.496;2023-07-08T07:58:36;98765.59;;;27.45;55.35
77526;BME280;66627;29.424;-98.496;2023-07-08T08:01:01;98766.78;;;26.75;55.48
77526;BME280;66627;29.424;-98.496;2023-07-08T08:03:26;98764.40;;;26.81;55.51
77526;BME280;66627;29.424;-98.496;2023-07-08T08:05:52;98752.27;;;27.40;55.19
77526;BME280;66627;29.424;-98.496;2023-07-08T08:08:18;98749.39;;;27.32;55.12
77526;BME280;66627;29.424;-98.496;2023-07-08T08:10:43;98748.24;;;27.12;56.18
77526;BME280;66627;29.424;-98.496;2023-07-08T08:13:07;98754.50;;;27.12;55.95
77526;BME280;66627;29.424;-98.496;2023-07-08T08:15:34;98750.77;;;27.50;55.23
77526;BME280;66627;29.424;-98.496;2023-07-08T08:17:58;98742.41;;;27.28;55.64
77526;BME280;66627;29.424;-98.496;2023-07-08T08:20:25;98743.12;;;26.87;56.43
77526;BME280;66627;29.424;-98.496;2023-07-08T08:22:49;98749.98;;;27.13;55.83
77526;BME280;66627;29.424;-98.496;2023-07-08T08:25:16;98754.38;;;27.00;56.64
77526;BME280;66627;29.424;-98.496;2023-07-08T08:27:40;98747.70;;;27.78;55.03
77526;BME280;66627;29.424;-98.496;2023-07-08T08:30:06;98745.75;;;27.03;55.42
77526;BME280;66627;29.424;-98.496;2023-07-08T08:32:31;98740.06;;;26.48;57.71
77526;BME280;66627;29.424;-98.496;2023-07-08T08:34:57;98739.09;;;26.73;57.29
77526;BME280;66627;29.424;-98.496;2023-07-08T08:37:22;98740.11;;;27.11;56.63
77526;BME280;66627;29.424;-98.496;2023-07-08T08:39:47;98745.09;;;26.43;57.93
77526;BME280;66627;29.424;-98.496;2023-07-08T08:42:18;98745.22;;;26.95;56.82
77526;BME280;66627;29.424;-98.496;2023-07-08T08:44:38;98748.18;;;26.37;58.21
77526;BME280;66627;29.424;-98.496;2023-07-08T08:47:07;98749.78;;;26.62;57.85
77526;BME280;66627;29.424;-98.496;2023-07-08T08:49:34;98748.28;;;26.68;57.47
77526;BME280;66627;29.424;-98.496;2023-07-08T08:51:54;98752.91;;;26.48;58.17
77526;BME280;66627;29.424;-98.496;2023-07-08T08:54:18;98754.22;;;26.45;58.21
77526;BME280;66627;29.424;-98.496;2023-07-08T08:56:51;98756.45;;;26.89;56.83
77526;BME280;66627;29.424;-98.496;2023-07-08T08:59:14;98758.11;;;26.59;57.56
77526;BME280;66627;29.424;-98.496;2023-07-08T09:01:35;98761.74;;;26.91;56.75
77526;BME280;66627;29.424;-98.496;2023-07-08T09:04:02;98763.14;;;26.62;58.03
77526;BME280;66627;29.424;-98.496;2023-07-08T09:06:27;98765.97;;;26.74;57.63
77526;BME280;66627;29.424;-98.496;2023-07-08T09:08:51;98756.89;;;27.03;57.39
77526;BME280;66627;29.424;-98.496;2023-07-08T09:11:31;98759.70;;;27.00;57.55
77526;BME280;66627;29.424;-98.496;2023-07-08T09:13:41;98768.96;;;26.71;57.84
77526;BME280;66627;29.424;-98.496;2023-07-08T09:16:09;98772.85;;;26.97;57.47
77526;BME280;66627;29.424;-98.496;2023-07-08T09:18:36;98778.61;;;27.16;57.01
77526;BME280;66627;29.424;-98.496;2023-07-08T09:21:12;98776.21;;;26.99;56.21
77526;BME280;66627;29.424;-98.496;2023-07-08T09:23:26;98780.56;;;26.60;57.96
77526;BME280;66627;29.424;-98.496;2023-07-08T09:25:52;98775.64;;;26.73;57.35
77526;BME280;66627;29.424;-98.496;2023-07-08T09:28:14;98771.95;;;26.54;57.66
77526;BME280;66627;29.424;-98.496;2023-07-08T09:30:39;98771.95;;;26.54;57.55
77526;BME280;66627;29.424;-98.496;2023-07-08T09:33:06;98773.69;;;26.82;57.63
77526;BME280;66627;29.424;-98.496;2023-07-08T09:35:38;98776.55;;;26.55;58.18
77526;BME280;66627;29.424;-98.496;2023-07-08T09:37:55;98777.80;;;26.79;57.16
77526;BME280;66627;29.424;-98.496;2023-07-08T09:40:28;98781.59;;;26.39;58.67
77526;BME280;66627;29.424;-98.496;2023-07-08T09:42:51;98782.02;;;26.30;58.92
77526;BME280;66627;29.424;-98.496;2023-07-08T09:45:15;98786.84;;;26.23;58.60
77526;BME280;66627;29.424;-98.496;2023-07-08T09:47:38;98784.74;;;26.43;58.35
77526;BME280;66627;29.424;-98.496;2023-07-08T09:50:10;98787.68;;;26.38;58.91
77526;BME280;66627;29.424;-98.496;2023-07-08T09:52:30;98785.51;;;26.29;59.25
77526;BME280;66627;29.424;-98.496;2023-07-08T09:54:54;98785.52;;;26.90;58.04
77526;BME280;66627;29.424;-98.496;2023-07-08T09:57:26;98782.60;;;27.24;57.14
77526;BME280;66627;29.424;-98.496;2023-07-08T09:59:47;98780.07;;;27.05;57.79
77526;BME280;66627;29.424;-98.496;2023-07-08T10:02:25;98780.71;;;26.07;59.42
77526;BME280;66627;29.424;-98.496;2023-07-08T10:04:36;98780.99;;;27.43;56.86
77526;BME280;66627;29.424;-98.496;2023-07-08T10:07:01;98786.48;;;26.88;58.10
77526;BME280;66627;29.424;-98.496;2023-07-08T10:09:26;98786.76;;;27.22;57.36
77526;BME280;66627;29.424;-98.496;2023-07-08T10:11:58;98784.44;;;27.21;57.66
77526;BME280;66627;29.424;-98.496;2023-07-08T10:14:24;98778.54;;;26.68;58.13
77526;BME280;66627;29.424;-98.496;2023-07-08T10:16:44;98773.30;;;26.50;59.14
77526;BME280;66627;29.424;-98.496;2023-07-08T10:19:13;98771.65;;;26.49;58.67
77526;BME280;66627;29.424;-98.496;2023-07-08T10:21:39;98772.32;;;26.36;58.91
77526;BME280;66627;29.424;-98.496;2023-07-08T10:24:09;98775.41;;;27.15;57.92
77526;BME280;66627;29.424;-98.496;2023-07-08T10:26:27;98769.35;;;27.62;56.93
77526;BME280;66627;29.424;-98.496;2023-07-08T10:29:01;98765.34;;;27.03;57.41
77526;BME280;66627;29.424;-98.496;2023-07-08T10:31:25;98760.60;;;26.99;57.95
77526;BME280;66627;29.424;-98.496;2023-07-08T10:33:53;98751.06;;;27.22;57.07
77526;BME280;66627;29.424;-98.496;2023-07-08T10:36:19;98748.61;;;26.96;58.03
77526;BME280;66627;29.424;-98.496;2023-07-08T10:38:43;98743.29;;;26.61;57.93
77526;BME280;66627;29.424;-98.496;2023-07-08T10:41:04;98744.73;;;26.47;58.56
77526;BME280;66627;29.424;-98.496;2023-07-08T10:43:37;98748.22;;;26.52;59.12
77526;BME280;66627;29.424;-98.496;2023-07-08T10:45:54;98747.58;;;27.49;56.10
77526;BME280;66627;29.424;-98.496;2023-07-08T10:48:27;98752.85;;;27.32;56.96
77526;BME280;66627;29.424;-98.496;2023-07-08T10:50:52;98763.09;;;26.47;59.17
77526;BME280;66627;29.424;-98.496;2023-07-08T10:55:36;98766.61;;;26.64;58.48
77526;BME280;66627;29.424;-98.496;2023-07-08T11:00:27;98766.32;;;26.89;57.71
77526;BME280;66627;29.424;-98.496;2023-07-08T11:02:59;98766.88;;;26.60;58.81
77526;BME280;66627;29.424;-98.496;2023-07-08T11:05:22;98764.77;;;26.93;58.25
77526;BME280;66627;29.424;-98.496;2023-07-08T11:07:41;98769.84;;;27.16;57.76
77526;BME280;66627;29.424;-98.496;2023-07-08T11:10:05;98769.14;;;26.65;58.29
77526;BME280;66627;29.424;-98.496;2023-07-08T11:12:31;98765.49;;;27.31;56.63
77526;BME280;66627;29.424;-98.496;2023-07-08T11:14:57;98772.42;;;26.12;59.98
77526;BME280;66627;29.424;-98.496;2023-07-08T11:17:22;98782.21;;;26.47;59.51
77526;BME280;66627;29.424;-98.496;2023-07-08T11:19:48;98787.23;;;26.43;59.47
77526;BME280;66627;29.424;-98.496;2023-07-08T11:24:37;98788.09;;;27.66;56.85
77526;BME280;66627;29.424;-98.496;2023-07-08T11:27:04;98795.24;;;26.15;59.48
77526;BME280;66627;29.424;-98.496;2023-07-08T11:29:30;98795.28;;;26.35;59.12
77526;BME280;66627;29.424;-98.496;2023-07-08T11:31:51;98796.43;;;26.28;59.86
77526;BME280;66627;29.424;-98.496;2023-07-08T11:34:17;98798.43;;;27.45;57.36
77526;BME280;66627;29.424;-98.496;2023-07-08T11:36:42;98800.68;;;26.60;58.49
77526;BME280;66627;29.424;-98.496;2023-07-08T11:41:32;98803.94;;;27.24;56.97
77526;BME280;66627;29.424;-98.496;2023-07-08T11:43:59;98806.66;;;27.30;56.63
77526;BME280;66627;29.424;-98.496;2023-07-08T11:46:25;98811.90;;;27.01;57.77
77526;BME280;66627;29.424;-98.496;2023-07-08T11:48:50;98813.86;;;26.85;57.87
77526;BME280;66627;29.424;-98.496;2023-07-08T11:51:18;98815.58;;;26.65;57.95
77526;BME280;66627;29.424;-98.496;2023-07-08T11:53:48;98816.98;;;27.26;57.23
77526;BME280;66627;29.424;-98.496;2023-07-08T11:56:18;98816.88;;;27.00;57.52
77526;BME280;66627;29.424;-98.496;2023-07-08T11:58:31;98820.02;;;27.51;57.02
77526;BME280;66627;29.424;-98.496;2023-07-08T12:01:04;98825.51;;;27.00;58.30
77526;BME280;66627;29.424;-98.496;2023-07-08T12:03:21;98829.32;;;26.67;58.39
77526;BME280;66627;29.424;-98.496;2023-07-08T12:05:45;98832.76;;;27.60;56.17
77526;BME280;66627;29.424;-98.496;2023-07-08T12:08:14;98837.99;;;28.32;54.46
77526;BME280;66627;29.424;-98.496;2023-07-08T12:10:38;98837.85;;;28.76;54.21
77526;BME280;66627;29.424;-98.496;2023-07-08T12:13:00;98842.94;;;27.36;56.40
77526;BME280;66627;29.424;-98.496;2023-07-08T12:15:28;98836.77;;;27.66;55.94
77526;BME280;66627;29.424;-98.496;2023-07-08T12:17:53;98839.72;;;26.87;57.28
77526;BME280;66627;29.424;-98.496;2023-07-08T12:20:22;98845.01;;;26.27;58.31
77526;BME280;66627;29.424;-98.496;2023-07-08T12:22:43;98855.61;;;26.61;57.63
77526;BME280;66627;29.424;-98.496;2023-07-08T12:25:13;98856.97;;;25.88;59.26
77526;BME280;66627;29.424;-98.496;2023-07-08T12:27:33;98850.32;;;27.47;57.36
77526;BME280;66627;29.424;-98.496;2023-07-08T12:29:59;98845.43;;;27.59;56.40
77526;BME280;66627;29.424;-98.496;2023-07-08T12:32:24;98839.67;;;27.00;57.83
77526;BME280;66627;29.424;-98.496;2023-07-08T12:34:50;98841.21;;;27.07;57.76
77526;BME280;66627;29.424;-98.496;2023-07-08T12:37:15;98839.91;;;27.28;57.45
77526;BME280;66627;29.424;-98.496;2023-07-08T12:39:40;98838.26;;;26.67;58.62